Aviation Digital Data Service (ADDS)

Output produced by METARs form (0755 UTC 11 December 2016)
found at http://aviationweather.gov/adds/metars/
 
KPBG 110537Z 1106/1206 VRB03KT P6SM FEW250 
     FM111100 00000KT P6SM BKN050 
     FM111700 14006KT P6SM SCT045 
     FM111900 14007KT P6SM BKN040 
     FM112200 15006KT P6SM VCSH OVC040 
     FM120300 16008KT 1 1/2SM -SN BR OVC025